Terminal Aerodrome Forecast
Issued by NWS

Home | Current Version | Previous Version | Text Only | Print | Product List | Glossary On
Versions: 1 2 3 4 5 6 7 8 9 10 11 12 13 14
000
FTUS43 KSGF 301243 AAA
TAFJLN
TAF AMD
KJLN 301243Z 3012/3112 VRB04KT P6SM SCT120
     FM301800 02005KT P6SM FEW050 SCT250
     FM310000 14004KT P6SM SCT250
     FM310900 14005KT P6SM BKN100 OVC200=

USA.gov is the U.S. government's official web portal to all federal, state and local government web resources and services.